Time,TemperatureF,DewpointF,PressureIn,WindDirection,WindDirectionDegrees,WindSpeedMPH,WindSpeedGustMPH,Humidity,HourlyPrecipIn,Conditions,Clouds,dailyrainin,SolarRadiationWatts/m^2,SoftwareType,DateUTC
2013-01-07 00:01:00,37.3,34.9,30.16,NNW,340,0.0,0.0,91,0.00,SCT,,0.00,0.0,WeatherDisplay:10.37,2013-01-07 05:01:00,
2013-01-07 00:06:00,37.3,34.9,30.17,NNW,340,0.0,0.0,91,0.00,SCT,,0.00,0.0,WeatherDisplay:10.37,2013-01-07 05:06:00,
2013-01-07 00:11:00,37.2,34.6,30.17,NNW,340,0.0,0.0,90,0.00,SCT,,0.00,0.0,WeatherDisplay:10.37,2013-01-07 05:11:00,
2013-01-07 00:16:00,37.2,34.8,30.17,NNW,340,0.0,0.0,91,0.00,SCT,,0.00,0.0,WeatherDisplay:10.37,2013-01-07 05:16:00,
2013-01-07 00:21:00,37.2,34.8,30.17,NNW,340,0.0,0.0,91,0.00,SCT,,0.00,0.0,WeatherDisplay:10.37,2013-01-07 05:21:00,
2013-01-07 00:26:00,37.0,34.3,30.17,NNW,340,0.0,0.0,90,0.00,SCT,,0.00,0.0,WeatherDisplay:10.37,2013-01-07 05:26:00,
2013-01-07 00:31:00,37.0,34.3,30.17,NNW,340,0.0,0.0,90,0.00,SCT,,0.00,0.0,WeatherDisplay:10.37,2013-01-07 05:31:00,
2013-01-07 00:36:00,36.9,34.2,30.17,NNW,340,0.0,0.0,90,0.00,SCT,,0.00,0.0,WeatherDisplay:10.37,2013-01-07 05:36:00,
2013-01-07 00:41:00,36.8,34.1,30.18,NNW,340,0.0,0.0,90,0.00,SCT,,0.00,0.0,WeatherDisplay:10.37,2013-01-07 05:41:00,
2013-01-07 00:46:00,36.6,33.9,30.18,NNW,340,0.0,0.0,90,0.00,SCT,,0.00,0.0,WeatherDisplay:10.37,2013-01-07 05:46:00,
2013-01-07 00:51:00,36.5,33.8,30.18,NNW,340,0.0,0.0,90,0.00,SCT,,0.00,0.0,WeatherDisplay:10.37,2013-01-07 05:51:00,
2013-01-07 00:56:00,36.3,33.6,30.18,NNW,340,0.0,0.0,90,0.00,SCT,,0.00,0.0,WeatherDisplay:10.37,2013-01-07 05:56:00,
2013-01-07 01:01:00,36.2,33.6,30.17,NNW,340,0.0,0.0,90,0.00,BKN,,0.00,0.0,WeatherDisplay:10.37,2013-01-07 06:01:00,
2013-01-07 01:11:00,35.9,33.0,30.17,NNW,340,0.0,0.0,89,0.00,BKN,,0.00,0.0,WeatherDisplay:10.37,2013-01-07 06:11:00,
2013-01-07 01:16:00,35.9,32.9,30.17,NNW,340,0.0,0.0,89,0.00,BKN,,0.00,0.0,WeatherDisplay:10.37,2013-01-07 06:16:00,
2013-01-07 01:21:00,35.8,32.9,30.18,NNW,340,0.0,0.0,89,0.00,BKN,,0.00,0.0,WeatherDisplay:10.37,2013-01-07 06:21:00,
2013-01-07 01:26:00,35.6,32.7,30.18,NNW,340,0.0,0.0,89,0.00,BKN,,0.00,0.0,WeatherDisplay:10.37,2013-01-07 06:26:00,
2013-01-07 01:31:00,35.5,32.6,30.18,NNW,340,0.0,0.0,89,0.00,BKN,,0.00,0.0,WeatherDisplay:10.37,2013-01-07 06:31:00,
2013-01-07 01:36:00,35.3,32.4,30.18,NNW,340,0.0,0.0,89,0.00,BKN,,0.00,0.0,WeatherDisplay:10.37,2013-01-07 06:36:00,
2013-01-07 01:41:00,35.2,32.3,30.18,NNW,340,0.0,0.0,89,0.00,BKN,,0.00,0.0,WeatherDisplay:10.37,2013-01-07 06:41:00,
2013-01-07 01:46:00,35.0,32.1,30.19,NNW,340,0.0,0.0,89,0.00,BKN,,0.00,0.0,WeatherDisplay:10.37,2013-01-07 06:46:00,
2013-01-07 01:51:00,34.9,32.0,30.19,NNW,340,0.0,0.0,89,0.00,BKN,,0.00,0.0,WeatherDisplay:10.37,2013-01-07 06:51:00,
2013-01-07 01:56:00,34.7,31.8,30.19,NNW,340,0.0,0.0,89,0.00,BKN,,0.00,0.0,WeatherDisplay:10.37,2013-01-07 06:56:00,
2013-01-07 02:01:00,34.6,31.7,30.19,NNW,340,0.0,0.0,89,0.00,FEW,,0.00,0.0,WeatherDisplay:10.37,2013-01-07 07:01:00,
2013-01-07 02:06:00,34.6,31.7,30.19,NNW,340,0.0,0.0,89,0.00,FEW,,0.00,0.0,WeatherDisplay:10.37,2013-01-07 07:06:00,
2013-01-07 02:16:00,34.3,31.4,30.19,NNW,340,0.0,0.0,89,0.00,FEW,,0.00,0.0,WeatherDisplay:10.37,2013-01-07 07:16:00,
2013-01-07 02:21:00,34.1,31.2,30.19,NNW,340,0.0,0.0,89,0.00,FEW,,0.00,0.0,WeatherDisplay:10.37,2013-01-07 07:21:00,
2013-01-07 02:26:00,34.1,31.2,30.19,NNW,340,0.0,0.0,89,0.00,FEW,,0.00,0.0,WeatherDisplay:10.37,2013-01-07 07:26:00,
2013-01-07 02:31:00,34.0,31.1,30.19,NNW,340,0.0,0.0,89,0.00,FEW,,0.00,0.0,WeatherDisplay:10.37,2013-01-07 07:31:00,
2013-01-07 02:36:00,33.8,30.9,30.19,NNW,340,0.0,0.0,89,0.00,FEW,,0.00,0.0,WeatherDisplay:10.37,2013-01-07 07:36:00,
2013-01-07 02:41:00,33.7,30.8,30.19,NNW,340,0.0,0.0,89,0.00,FEW,,0.00,0.0,WeatherDisplay:10.37,2013-01-07 07:41:00,
2013-01-07 02:46:00,33.5,30.6,30.19,NNW,340,0.0,0.0,89,0.00,FEW,,0.00,0.0,WeatherDisplay:10.37,2013-01-07 07:46:00,
2013-01-07 02:51:00,33.4,30.8,30.19,NNW,340,0.0,0.0,90,0.00,FEW,,0.00,0.0,WeatherDisplay:10.37,2013-01-07 07:51:00,
2013-01-07 02:56:00,33.4,30.8,30.20,NNW,340,0.0,0.0,90,0.00,FEW,,0.00,0.0,WeatherDisplay:10.37,2013-01-07 07:56:00,
2013-01-07 03:01:00,33.2,30.6,30.20,NNW,340,0.0,0.0,90,0.00,FEW,,0.00,0.0,WeatherDisplay:10.37,2013-01-07 08:01:00,
2013-01-07 03:11:00,32.9,30.0,30.19,NNW,340,0.0,0.0,89,0.00,FEW,,0.00,0.0,WeatherDisplay:10.37,2013-01-07 08:11:00,
2013-01-07 03:16:00,32.8,29.9,30.19,NNW,340,0.0,0.0,89,0.00,FEW,,0.00,0.0,WeatherDisplay:10.37,2013-01-07 08:16:00,
2013-01-07 03:21:00,32.8,30.2,30.19,NNW,340,0.0,0.0,90,0.00,FEW,,0.00,0.0,WeatherDisplay:10.37,2013-01-07 08:21:00,
2013-01-07 03:26:00,32.7,30.1,30.19,NNW,340,0.0,0.0,90,0.00,FEW,,0.00,0.0,WeatherDisplay:10.37,2013-01-07 08:26:00,
2013-01-07 03:36:00,32.5,29.9,30.19,NNW,340,0.0,0.0,90,0.00,FEW,,0.00,0.0,WeatherDisplay:10.37,2013-01-07 08:36:00,
2013-01-07 03:41:00,32.4,29.8,30.19,NNW,340,0.0,0.0,90,0.00,FEW,,0.00,0.0,WeatherDisplay:10.37,2013-01-07 08:41:00,
2013-01-07 03:46:00,32.2,29.6,30.19,NNW,340,0.0,0.0,90,0.00,FEW,,0.00,0.0,WeatherDisplay:10.37,2013-01-07 08:46:00,
2013-01-07 03:56:00,32.1,29.5,30.20,NNW,340,0.0,0.0,90,0.00,FEW,,0.00,0.0,WeatherDisplay:10.37,2013-01-07 08:56:00,
2013-01-07 04:01:00,31.9,29.3,30.20,NNW,340,0.0,0.0,90,0.00,CLR,,0.00,0.0,WeatherDisplay:10.37,2013-01-07 09:01:00,
2013-01-07 04:11:00,31.8,29.2,30.20,NNW,340,0.0,0.0,90,0.00,CLR,,0.00,0.0,WeatherDisplay:10.37,2013-01-07 09:11:00,
2013-01-07 04:16:00,31.8,29.2,30.20,NNW,340,0.0,0.0,90,0.00,CLR,,0.00,0.0,WeatherDisplay:10.37,2013-01-07 09:16:00,
2013-01-07 04:21:00,31.6,29.0,30.20,NNW,340,0.0,0.0,90,0.00,CLR,,0.00,0.0,WeatherDisplay:10.37,2013-01-07 09:21:00,
2013-01-07 04:26:00,31.5,28.9,30.20,NNW,340,0.0,0.0,90,0.00,CLR,,0.00,0.0,WeatherDisplay:10.37,2013-01-07 09:26:00,
2013-01-07 04:31:00,31.5,28.9,30.20,NNW,340,0.0,0.0,90,0.00,CLR,,0.00,0.0,WeatherDisplay:10.37,2013-01-07 09:31:00,
2013-01-07 04:36:00,31.3,28.7,30.21,NNW,340,0.0,0.0,90,0.00,CLR,,0.00,0.0,WeatherDisplay:10.37,2013-01-07 09:36:00,
2013-01-07 04:41:00,31.2,28.6,30.21,NNW,340,0.0,0.0,90,0.00,CLR,,0.00,0.0,WeatherDisplay:10.37,2013-01-07 09:41:00,
2013-01-07 04:46:00,31.2,28.6,30.21,NNW,340,0.0,0.0,90,0.00,CLR,,0.00,0.0,WeatherDisplay:10.37,2013-01-07 09:46:00,
2013-01-07 04:51:00,31.0,28.4,30.21,NNW,340,0.0,0.0,90,0.00,CLR,,0.00,0.0,WeatherDisplay:10.37,2013-01-07 09:51:00,
2013-01-07 04:56:00,31.0,28.4,30.22,NNW,340,0.0,0.0,90,0.00,CLR,,0.00,0.0,WeatherDisplay:10.37,2013-01-07 09:56:00,
2013-01-07 05:01:00,30.9,28.3,30.22,NNW,340,0.0,0.0,90,0.00,CLR,,0.00,0.0,WeatherDisplay:10.37,2013-01-07 10:01:00,
2013-01-07 05:11:00,30.9,28.6,30.23,NNW,340,0.0,0.0,91,0.00,CLR,,0.00,0.0,WeatherDisplay:10.37,2013-01-07 10:11:00,
2013-01-07 05:16:00,30.8,28.5,30.23,NNW,340,0.0,0.0,91,0.00,CLR,,0.00,0.0,WeatherDisplay:10.37,2013-01-07 10:16:00,
2013-01-07 05:21:00,30.7,28.4,30.24,NNW,340,0.0,0.0,91,0.00,CLR,,0.00,0.0,WeatherDisplay:10.37,2013-01-07 10:21:00,
2013-01-07 05:26:00,30.7,28.4,30.24,NNW,340,0.0,0.0,91,0.00,CLR,,0.00,0.0,WeatherDisplay:10.37,2013-01-07 10:26:00,
2013-01-07 05:31:00,30.7,28.4,30.24,NNW,340,0.0,0.0,91,0.00,CLR,,0.00,0.0,WeatherDisplay:10.37,2013-01-07 10:31:00,
2013-01-07 05:36:00,30.7,28.4,30.24,NNW,340,0.0,0.0,91,0.00,CLR,,0.00,0.0,WeatherDisplay:10.37,2013-01-07 10:36:00,
2013-01-07 05:41:00,30.6,28.3,30.24,NNW,340,0.0,0.0,91,0.00,CLR,,0.00,0.0,WeatherDisplay:10.37,2013-01-07 10:41:00,
2013-01-07 05:46:00,30.6,28.3,30.25,NNW,340,0.0,0.0,91,0.00,CLR,,0.00,0.0,WeatherDisplay:10.37,2013-01-07 10:46:00,
2013-01-07 05:51:00,30.6,28.3,30.25,NNW,340,0.0,0.0,91,0.00,CLR,,0.00,0.0,WeatherDisplay:10.37,2013-01-07 10:51:00,
2013-01-07 05:56:00,30.7,28.4,30.24,NNW,340,0.0,0.0,91,0.00,CLR,,0.00,0.0,WeatherDisplay:10.37,2013-01-07 10:56:00,
2013-01-07 06:01:00,30.7,28.4,30.25,NNW,340,0.0,0.0,91,0.00,CLR,,0.00,0.0,WeatherDisplay:10.37,2013-01-07 11:01:00,
2013-01-07 06:11:00,30.7,28.4,30.26,NNW,340,0.0,0.0,91,0.00,CLR,,0.00,0.0,WeatherDisplay:10.37,2013-01-07 11:11:00,
2013-01-07 06:16:00,30.7,28.7,30.26,NNW,340,0.0,0.0,92,0.00,CLR,,0.00,0.0,WeatherDisplay:10.37,2013-01-07 11:16:00,
2013-01-07 06:21:00,30.6,28.6,30.26,NNW,340,0.0,0.0,92,0.00,CLR,,0.00,0.0,WeatherDisplay:10.37,2013-01-07 11:21:00,
2013-01-07 06:26:00,30.6,28.6,30.27,NNW,340,0.0,0.0,92,0.00,CLR,,0.00,0.0,WeatherDisplay:10.37,2013-01-07 11:26:00,
2013-01-07 06:31:00,30.6,28.6,30.27,NNW,340,0.0,0.0,92,0.00,CLR,,0.00,0.0,WeatherDisplay:10.37,2013-01-07 11:31:00,
2013-01-07 06:36:00,30.6,28.6,30.28,NNW,340,0.0,0.0,92,0.00,CLR,,0.00,0.0,WeatherDisplay:10.37,2013-01-07 11:36:00,
2013-01-07 06:41:00,30.6,28.6,30.28,NNW,340,0.0,0.0,92,0.00,CLR,,0.00,0.0,WeatherDisplay:10.37,2013-01-07 11:41:00,
2013-01-07 06:46:00,30.7,28.7,30.28,NNW,340,0.0,0.0,92,0.00,CLR,,0.00,0.0,WeatherDisplay:10.37,2013-01-07 11:46:00,
2013-01-07 06:51:00,30.7,28.7,30.29,NNW,340,0.0,0.0,92,0.00,CLR,,0.00,0.0,WeatherDisplay:10.37,2013-01-07 11:51:00,
2013-01-07 06:56:00,30.7,28.7,30.29,NNW,340,0.0,0.0,92,0.00,CLR,,0.00,0.0,WeatherDisplay:10.37,2013-01-07 11:56:00,
2013-01-07 07:01:00,30.9,28.8,30.30,NNW,340,0.0,0.0,92,0.00,FEW,,0.00,0.0,WeatherDisplay:10.37,2013-01-07 12:01:00,
2013-01-07 07:11:00,31.7,29.9,30.30,NNW,348,0.0,1.0,93,0.00,FEW,,0.00,0.0,WeatherDisplay:10.37,2013-01-07 12:11:00,
2013-01-07 07:16:00,32.4,30.6,30.30,North,351,0.0,0.0,93,0.00,FEW,,0.00,0.0,WeatherDisplay:10.37,2013-01-07 12:16:00,
2013-01-07 07:21:00,32.7,30.9,30.31,North,351,0.0,0.0,93,0.00,FEW,,0.00,0.0,WeatherDisplay:10.37,2013-01-07 12:21:00,
2013-01-07 07:26:00,32.9,31.1,30.31,North,353,0.0,0.0,93,0.00,FEW,,0.00,0.0,WeatherDisplay:10.37,2013-01-07 12:26:00,
2013-01-07 07:31:00,33.2,31.4,30.32,North,357,0.0,0.0,93,0.00,FEW,,0.00,0.0,WeatherDisplay:10.37,2013-01-07 12:31:00,
2013-01-07 07:36:00,33.5,31.7,30.32,North,7,0.0,0.0,93,0.00,FEW,,0.00,5.8,WeatherDisplay:10.37,2013-01-07 12:36:00,
2013-01-07 07:41:00,33.8,31.7,30.32,North,5,0.0,0.0,92,0.00,FEW,,0.00,10.4,WeatherDisplay:10.37,2013-01-07 12:41:00,
2013-01-07 07:46:00,34.1,32.0,30.33,North,7,0.0,0.0,92,0.00,FEW,,0.00,12.6,WeatherDisplay:10.37,2013-01-07 12:46:00,
2013-01-07 07:56:00,34.6,32.2,30.33,NNE,19,0.0,0.0,91,0.00,FEW,,0.00,16.1,WeatherDisplay:10.37,2013-01-07 12:56:00,
2013-01-07 08:01:00,34.7,32.1,30.33,NNE,20,0.0,0.0,90,0.00,FEW,,0.00,18.4,WeatherDisplay:10.37,2013-01-07 13:01:00,
2013-01-07 08:06:00,35.0,32.4,30.34,NNE,12,1.0,3.0,90,0.00,FEW,,0.00,20.7,WeatherDisplay:10.37,2013-01-07 13:06:00,
2013-01-07 08:11:00,35.4,32.2,30.34,North,7,0.0,2.0,88,0.00,FEW,,0.00,21.8,WeatherDisplay:10.37,2013-01-07 13:11:00,
2013-01-07 08:16:00,35.8,32.3,30.35,NNE,18,1.0,2.0,87,0.00,FEW,,0.00,21.8,WeatherDisplay:10.37,2013-01-07 13:16:00,
2013-01-07 08:21:00,36.1,32.0,30.34,North,11,0.0,2.0,85,0.00,FEW,,0.00,24.2,WeatherDisplay:10.37,2013-01-07 13:21:00,
2013-01-07 08:31:00,36.8,32.1,30.35,NNE,18,1.0,6.0,83,0.00,FEW,,0.00,28.7,WeatherDisplay:10.37,2013-01-07 13:31:00,
2013-01-07 08:36:00,37.0,32.1,30.35,North,10,0.0,2.0,82,0.00,FEW,,0.00,28.7,WeatherDisplay:10.37,2013-01-07 13:36:00,
2013-01-07 08:41:00,37.5,32.2,30.35,North,8,0.0,5.0,81,0.00,FEW,,0.00,29.9,WeatherDisplay:10.37,2013-01-07 13:41:00,
2013-01-07 08:46:00,37.9,32.2,30.36,North,357,0.0,5.0,80,0.00,FEW,,0.00,32.2,WeatherDisplay:10.37,2013-01-07 13:46:00,
2013-01-07 08:51:00,38.2,31.9,30.36,North,2,1.0,5.0,78,0.00,FEW,,0.00,32.2,WeatherDisplay:10.37,2013-01-07 13:51:00,
2013-01-07 08:56:00,38.6,32.0,30.36,North,6,1.0,3.0,77,0.00,FEW,,0.00,34.5,WeatherDisplay:10.37,2013-01-07 13:56:00,
2013-01-07 09:01:00,39.1,31.9,30.37,North,4,1.0,5.0,75,0.00,FEW,,0.00,34.5,WeatherDisplay:10.37,2013-01-07 14:01:00,
2013-01-07 09:11:00,40.0,32.0,30.38,NNE,16,2.0,5.0,73,0.00,FEW,,0.00,36.8,WeatherDisplay:10.37,2013-01-07 14:11:00,
2013-01-07 09:16:00,40.5,31.8,30.38,North,9,2.0,7.0,71,0.00,FEW,,0.00,36.8,WeatherDisplay:10.37,2013-01-07 14:16:00,
2013-01-07 09:21:00,40.9,32.2,30.38,North,1,1.0,5.0,71,0.00,FEW,,0.00,37.9,WeatherDisplay:10.37,2013-01-07 14:21:00,
2013-01-07 09:26:00,41.2,32.2,30.38,North,9,2.0,5.0,70,0.00,FEW,,0.00,37.9,WeatherDisplay:10.37,2013-01-07 14:26:00,
2013-01-07 09:31:00,41.6,32.5,30.38,NNE,24,3.0,7.0,70,0.00,FEW,,0.00,37.9,WeatherDisplay:10.37,2013-01-07 14:31:00,
2013-01-07 09:36:00,42.0,31.8,30.38,NNE,24,3.0,6.0,67,0.00,FEW,,0.00,37.9,WeatherDisplay:10.37,2013-01-07 14:36:00,
2013-01-07 09:41:00,42.3,32.1,30.39,NNE,20,1.0,6.0,67,0.00,FEW,,0.00,40.3,WeatherDisplay:10.37,2013-01-07 14:41:00,
2013-01-07 09:46:00,42.7,32.5,30.38,NNE,14,2.0,5.0,67,0.00,FEW,,0.00,40.3,WeatherDisplay:10.37,2013-01-07 14:46:00,
2013-01-07 09:51:00,42.9,32.3,30.39,NNE,19,1.0,3.0,66,0.00,FEW,,0.00,40.3,WeatherDisplay:10.37,2013-01-07 14:51:00,
2013-01-07 09:56:00,43.2,32.2,30.39,NNE,17,2.0,5.0,65,0.00,FEW,,0.00,40.3,WeatherDisplay:10.37,2013-01-07 14:56:00,
2013-01-07 10:01:00,43.5,32.1,30.39,NNE,14,3.0,7.0,64,0.00,FEW,,0.00,42.6,WeatherDisplay:10.37,2013-01-07 15:01:00,
2013-01-07 10:06:00,43.8,32.0,30.39,NNE,21,1.0,6.0,63,0.00,FEW,,0.00,42.6,WeatherDisplay:10.37,2013-01-07 15:06:00,
2013-01-07 10:11:00,44.2,32.0,30.39,North,9,3.0,6.0,62,0.00,FEW,,0.00,438.2,WeatherDisplay:10.37,2013-01-07 15:11:00,
2013-01-07 10:16:00,44.9,32.2,30.39,NNE,14,2.0,6.0,61,0.00,FEW,,0.00,440.4,WeatherDisplay:10.37,2013-01-07 15:16:00,
2013-01-07 10:21:00,45.4,31.9,30.39,NNE,26,1.0,5.0,59,0.00,FEW,,0.00,445.1,WeatherDisplay:10.37,2013-01-07 15:21:00,
2013-01-07 10:26:00,46.0,32.5,30.39,NNE,31,2.0,3.0,59,0.00,FEW,,0.00,455.4,WeatherDisplay:10.37,2013-01-07 15:26:00,
2013-01-07 10:31:00,46.2,31.8,30.39,NE,36,5.0,7.0,57,0.00,FEW,,0.00,464.6,WeatherDisplay:10.37,2013-01-07 15:31:00,
2013-01-07 10:36:00,46.4,32.0,30.39,NNE,26,3.0,7.0,57,0.00,FEW,,0.00,461.1,WeatherDisplay:10.37,2013-01-07 15:36:00,
2013-01-07 10:41:00,46.7,32.3,30.40,NNE,13,5.0,9.0,57,0.00,FEW,,0.00,354.2,WeatherDisplay:10.37,2013-01-07 15:41:00,
2013-01-07 10:46:00,46.8,31.9,30.39,NNE,17,3.0,9.0,56,0.00,FEW,,0.00,138.0,WeatherDisplay:10.37,2013-01-07 15:46:00,
2013-01-07 10:51:00,46.8,32.4,30.39,NNE,30,2.0,3.0,57,0.00,FEW,,0.00,90.8,WeatherDisplay:10.37,2013-01-07 15:51:00,
2013-01-07 10:56:00,47.0,32.5,30.39,NE,41,1.0,3.0,57,0.00,FEW,,0.00,176.0,WeatherDisplay:10.37,2013-01-07 15:56:00,
2013-01-07 11:01:00,47.1,33.1,30.39,NNE,27,3.0,6.0,58,0.00,FEW,,0.00,192.1,WeatherDisplay:10.37,2013-01-07 16:01:00,
2013-01-07 11:11:00,47.4,32.5,30.39,NNE,13,2.0,6.0,56,0.00,FEW,,0.00,263.3,WeatherDisplay:10.37,2013-01-07 16:11:00,
2013-01-07 11:16:00,47.5,32.6,30.39,NNE,21,2.0,7.0,56,0.00,FEW,,0.00,279.4,WeatherDisplay:10.37,2013-01-07 16:16:00,
2013-01-07 11:21:00,47.6,33.1,30.39,NNE,16,3.0,5.0,57,0.00,FEW,,0.00,77.1,WeatherDisplay:10.37,2013-01-07 16:21:00,
2013-01-07 11:26:00,47.7,32.8,30.39,NNE,19,2.0,5.0,56,0.00,FEW,,0.00,162.1,WeatherDisplay:10.37,2013-01-07 16:26:00,
2013-01-07 11:31:00,47.9,32.9,30.39,NNE,16,3.0,7.0,56,0.00,FEW,,0.00,151.8,WeatherDisplay:10.37,2013-01-07 16:31:00,
2013-01-07 11:36:00,48.0,32.6,30.39,NNE,30,1.0,6.0,55,0.00,FEW,,0.00,133.4,WeatherDisplay:10.37,2013-01-07 16:36:00,
2013-01-07 11:41:00,48.0,33.5,30.39,NNE,32,1.0,5.0,57,0.00,FEW,,0.00,197.8,WeatherDisplay:10.37,2013-01-07 16:41:00,
2013-01-07 11:46:00,48.3,33.3,30.39,North,6,2.0,5.0,56,0.00,FEW,,0.00,291.0,WeatherDisplay:10.37,2013-01-07 16:46:00,
2013-01-07 11:51:00,48.5,33.1,30.39,NNE,23,1.0,2.0,55,0.00,FEW,,0.00,261.0,WeatherDisplay:10.37,2013-01-07 16:51:00,
2013-01-07 11:56:00,48.6,33.1,30.38,ENE,59,1.0,3.0,55,0.00,FEW,,0.00,197.8,WeatherDisplay:10.37,2013-01-07 16:56:00,
2013-01-07 12:01:00,48.8,33.3,30.39,NNE,26,3.0,6.0,55,0.00,FEW,,0.00,181.7,WeatherDisplay:10.37,2013-01-07 17:01:00,
2013-01-07 12:11:00,49.1,33.6,30.38,NNE,24,1.0,6.0,55,0.00,FEW,,0.00,167.9,WeatherDisplay:10.37,2013-01-07 17:11:00,
2013-01-07 12:16:00,49.2,33.7,30.38,NNE,18,2.0,7.0,55,0.00,FEW,,0.00,301.3,WeatherDisplay:10.37,2013-01-07 17:16:00,
2013-01-07 12:21:00,49.5,33.5,30.38,NNE,12,2.0,5.0,54,0.00,FEW,,0.00,309.4,WeatherDisplay:10.37,2013-01-07 17:21:00,
2013-01-07 12:26:00,49.6,33.2,30.38,NNE,14,0.0,3.0,53,0.00,FEW,,0.00,272.5,WeatherDisplay:10.37,2013-01-07 17:26:00,
2013-01-07 12:31:00,49.8,33.8,30.37,NNE,16,0.0,6.0,54,0.00,FEW,,0.00,323.1,WeatherDisplay:10.37,2013-01-07 17:31:00,
2013-01-07 12:36:00,50.1,33.6,30.38,NNE,22,1.0,6.0,53,0.00,FEW,,0.00,410.5,WeatherDisplay:10.37,2013-01-07 17:36:00,
2013-01-07 12:41:00,50.2,33.3,30.37,NNE,24,1.0,5.0,52,0.00,FEW,,0.00,304.8,WeatherDisplay:10.37,2013-01-07 17:41:00,
2013-01-07 12:46:00,50.4,33.4,30.37,SSE,150,1.0,5.0,52,0.00,FEW,,0.00,530.2,WeatherDisplay:10.37,2013-01-07 17:46:00,
2013-01-07 12:51:00,50.4,32.9,30.37,East,91,1.0,4.0,51,0.00,FEW,,0.00,442.7,WeatherDisplay:10.37,2013-01-07 17:51:00,
2013-01-07 12:56:00,50.5,33.5,30.37,NE,50,1.0,3.0,52,0.00,FEW,,0.00,204.7,WeatherDisplay:10.37,2013-01-07 17:56:00,
2013-01-07 13:01:00,50.7,32.7,30.37,ENE,66,1.0,5.0,50,0.00,FEW,,0.00,220.8,WeatherDisplay:10.37,2013-01-07 18:01:00,
2013-01-07 13:11:00,50.9,32.9,30.37,NE,41,0.0,2.0,50,0.00,FEW,,0.00,463.5,WeatherDisplay:10.37,2013-01-07 18:11:00,
2013-01-07 13:16:00,51.1,32.6,30.37,NE,35,1.0,3.0,49,0.00,FEW,,0.00,62.1,WeatherDisplay:10.37,2013-01-07 18:16:00,
2013-01-07 13:21:00,51.1,33.1,30.37,ENE,60,0.0,3.0,50,0.00,FEW,,0.00,77.1,WeatherDisplay:10.37,2013-01-07 18:21:00,
2013-01-07 13:26:00,51.1,32.6,30.37,East,82,1.0,5.0,49,0.00,FEW,,0.00,72.4,WeatherDisplay:10.37,2013-01-07 18:26:00,
2013-01-07 13:36:00,51.3,32.8,30.37,NE,42,1.0,3.0,49,0.00,FEW,,0.00,56.4,WeatherDisplay:10.37,2013-01-07 18:36:00,
2013-01-07 13:41:00,51.4,32.8,30.36,North,1,0.0,5.0,49,0.00,FEW,,0.00,56.4,WeatherDisplay:10.37,2013-01-07 18:41:00,
2013-01-07 13:46:00,51.4,33.4,30.36,NNW,342,0.0,1.0,50,0.00,FEW,,0.00,88.6,WeatherDisplay:10.37,2013-01-07 18:46:00,
2013-01-07 13:51:00,51.6,33.6,30.36,NE,45,0.0,2.0,50,0.00,FEW,,0.00,54.0,WeatherDisplay:10.37,2013-01-07 18:51:00,
2013-01-07 13:56:00,51.7,33.1,30.36,ESE,109,1.0,4.0,49,0.00,FEW,,0.00,66.7,WeatherDisplay:10.37,2013-01-07 18:56:00,
2013-01-07 14:01:00,51.9,33.3,30.36,SSE,163,2.0,4.0,49,0.00,FEW,,0.00,62.1,WeatherDisplay:10.37,2013-01-07 19:01:00,
2013-01-07 14:11:00,51.9,33.3,30.36,North,356,1.0,5.0,49,0.00,FEW,,0.00,96.6,WeatherDisplay:10.37,2013-01-07 19:11:00,
2013-01-07 14:16:00,51.9,33.3,30.36,NNW,346,0.0,2.0,49,0.00,FEW,,0.00,56.4,WeatherDisplay:10.37,2013-01-07 19:16:00,
2013-01-07 14:21:00,51.9,33.3,30.37,NNE,13,2.0,5.0,49,0.00,FEW,,0.00,52.9,WeatherDisplay:10.37,2013-01-07 19:21:00,
2013-01-07 14:26:00,51.9,33.3,30.36,NNE,21,0.0,2.0,49,0.00,FEW,,0.00,56.4,WeatherDisplay:10.37,2013-01-07 19:26:00,
2013-01-07 14:31:00,51.9,33.3,30.37,NE,37,0.0,0.0,49,0.00,FEW,,0.00,52.9,WeatherDisplay:10.37,2013-01-07 19:31:00,
2013-01-07 14:41:00,52.0,31.8,30.37,North,4,2.0,5.0,46,0.00,FEW,,0.00,309.4,WeatherDisplay:10.37,2013-01-07 19:41:00,
2013-01-07 14:46:00,52.0,33.4,30.37,NW,311,0.0,2.0,49,0.00,FEW,,0.00,82.8,WeatherDisplay:10.37,2013-01-07 19:46:00,
2013-01-07 14:56:00,52.0,32.4,30.37,South,190,0.0,0.0,47,0.00,FEW,,0.00,48.3,WeatherDisplay:10.37,2013-01-07 19:56:00,
2013-01-07 15:01:00,51.9,32.8,30.38,West,263,0.0,0.0,48,0.00,FEW,,0.00,87.4,WeatherDisplay:10.37,2013-01-07 20:01:00,
2013-01-07 15:11:00,51.9,33.3,30.38,South,188,0.0,0.0,49,0.00,FEW,,0.00,155.3,WeatherDisplay:10.37,2013-01-07 20:11:00,
2013-01-07 15:16:00,51.7,32.1,30.38,SSE,150,0.0,1.0,47,0.00,FEW,,0.00,181.7,WeatherDisplay:10.37,2013-01-07 20:16:00,
2013-01-07 15:21:00,51.7,33.1,30.38,SE,141,0.0,2.0,49,0.00,FEW,,0.00,187.4,WeatherDisplay:10.37,2013-01-07 20:21:00,
2013-01-07 15:26:00,51.9,32.8,30.38,ESE,103,0.0,4.0,48,0.00,FEW,,0.00,261.0,WeatherDisplay:10.37,2013-01-07 20:26:00,
2013-01-07 15:31:00,52.0,33.4,30.38,ENE,64,0.0,1.0,49,0.00,FEW,,0.00,155.3,WeatherDisplay:10.37,2013-01-07 20:31:00,
2013-01-07 15:36:00,51.9,32.8,30.38,ENE,62,0.0,0.0,48,0.00,FEW,,0.00,123.1,WeatherDisplay:10.37,2013-01-07 20:36:00,
2013-01-07 15:41:00,51.9,32.3,30.38,ENE,67,0.0,1.0,47,0.00,FEW,,0.00,50.6,WeatherDisplay:10.37,2013-01-07 20:41:00,
2013-01-07 15:46:00,52.0,32.4,30.38,ENE,78,0.0,0.0,47,0.00,FEW,,0.00,36.8,WeatherDisplay:10.37,2013-01-07 20:46:00,
2013-01-07 15:51:00,52.0,32.9,30.38,East,85,0.0,0.0,48,0.00,FEW,,0.00,34.5,WeatherDisplay:10.37,2013-01-07 20:51:00,
2013-01-07 15:56:00,52.0,32.9,30.38,East,91,0.0,1.0,48,0.00,FEW,,0.00,34.5,WeatherDisplay:10.37,2013-01-07 20:56:00,
2013-01-07 16:01:00,51.9,32.8,30.38,ESE,108,0.0,1.0,48,0.00,FEW,,0.00,40.3,WeatherDisplay:10.37,2013-01-07 21:01:00,
2013-01-07 16:11:00,51.6,32.6,30.38,ESE,117,0.0,0.0,48,0.00,FEW,,0.00,29.9,WeatherDisplay:10.37,2013-01-07 21:11:00,
2013-01-07 16:16:00,51.4,32.9,30.38,ESE,120,0.0,0.0,49,0.00,FEW,,0.00,28.7,WeatherDisplay:10.37,2013-01-07 21:16:00,
2013-01-07 16:26:00,51.0,32.5,30.38,SE,125,0.0,0.0,49,0.00,FEW,,0.00,24.2,WeatherDisplay:10.37,2013-01-07 21:26:00,
2013-01-07 16:31:00,50.8,32.8,30.39,SE,125,0.0,0.0,50,0.00,FEW,,0.00,24.2,WeatherDisplay:10.37,2013-01-07 21:31:00,
2013-01-07 16:36:00,50.7,32.7,30.39,SE,125,0.0,0.0,50,0.00,FEW,,0.00,21.8,WeatherDisplay:10.37,2013-01-07 21:36:00,
2013-01-07 16:41:00,50.4,32.9,30.39,SE,125,0.0,0.0,51,0.00,FEW,,0.00,20.7,WeatherDisplay:10.37,2013-01-07 21:41:00,
2013-01-07 16:46:00,50.2,33.2,30.39,SE,125,0.0,0.0,52,0.00,FEW,,0.00,18.4,WeatherDisplay:10.37,2013-01-07 21:46:00,
2013-01-07 16:51:00,49.9,33.4,30.39,SE,125,0.0,0.0,53,0.00,FEW,,0.00,16.1,WeatherDisplay:10.37,2013-01-07 21:51:00,
2013-01-07 16:56:00,49.8,33.3,30.39,SE,125,0.0,0.0,53,0.00,FEW,,0.00,13.8,WeatherDisplay:10.37,2013-01-07 21:56:00,
2013-01-07 17:01:00,49.5,33.1,30.39,SE,125,0.0,0.0,53,0.00,FEW,,0.00,12.6,WeatherDisplay:10.37,2013-01-07 22:01:00,
2013-01-07 17:11:00,48.8,33.4,30.39,SE,125,0.0,0.0,55,0.00,FEW,,0.00,8.0,WeatherDisplay:10.37,2013-01-07 22:11:00,
2013-01-07 17:16:00,48.5,33.5,30.39,SE,125,0.0,0.0,56,0.00,FEW,,0.00,0.0,WeatherDisplay:10.37,2013-01-07 22:16:00,
2013-01-07 17:21:00,48.2,33.2,30.39,SE,125,0.0,0.0,56,0.00,FEW,,0.00,0.0,WeatherDisplay:10.37,2013-01-07 22:21:00,
2013-01-07 17:26:00,47.7,33.2,30.39,SE,125,0.0,0.0,57,0.00,FEW,,0.00,0.0,WeatherDisplay:10.37,2013-01-07 22:26:00,
2013-01-07 17:31:00,47.3,33.3,30.39,SE,125,0.0,0.0,58,0.00,FEW,,0.00,0.0,WeatherDisplay:10.37,2013-01-07 22:31:00,
2013-01-07 17:36:00,46.8,33.6,30.39,SE,125,0.0,0.0,60,0.00,FEW,,0.00,0.0,WeatherDisplay:10.37,2013-01-07 22:36:00,
2013-01-07 17:41:00,46.2,33.5,30.39,SE,125,0.0,0.0,61,0.00,FEW,,0.00,0.0,WeatherDisplay:10.37,2013-01-07 22:41:00,
2013-01-07 17:46:00,45.8,33.5,30.40,SE,125,0.0,0.0,62,0.00,FEW,,0.00,0.0,WeatherDisplay:10.37,2013-01-07 22:46:00,
2013-01-07 17:51:00,45.4,33.5,30.40,SE,125,0.0,0.0,63,0.00,FEW,,0.00,0.0,WeatherDisplay:10.37,2013-01-07 22:51:00,
2013-01-07 17:56:00,44.9,33.5,30.40,SE,125,0.0,0.0,64,0.00,FEW,,0.00,0.0,WeatherDisplay:10.37,2013-01-07 22:56:00,
2013-01-07 18:01:00,44.5,33.5,30.40,SE,125,0.0,0.0,65,0.00,FEW,,0.00,0.0,WeatherDisplay:10.37,2013-01-07 23:01:00,
2013-01-07 18:06:00,44.2,33.6,30.40,SE,125,0.0,0.0,66,0.00,FEW,,0.00,0.0,WeatherDisplay:10.37,2013-01-07 23:06:00,
2013-01-07 18:11:00,43.9,33.6,30.40,SE,125,0.0,0.0,67,0.00,FEW,,0.00,0.0,WeatherDisplay:10.37,2013-01-07 23:11:00,
2013-01-07 18:16:00,43.5,33.3,30.40,SE,125,0.0,0.0,67,0.00,FEW,,0.00,0.0,WeatherDisplay:10.37,2013-01-07 23:16:00,
2013-01-07 18:21:00,43.1,32.9,30.40,SE,125,0.0,0.0,67,0.00,FEW,,0.00,0.0,WeatherDisplay:10.37,2013-01-07 23:21:00,
2013-01-07 18:26:00,42.6,32.8,30.40,SE,125,0.0,0.0,68,0.00,FEW,,0.00,0.0,WeatherDisplay:10.37,2013-01-07 23:26:00,
2013-01-07 18:31:00,42.3,32.5,30.40,SE,125,0.0,0.0,68,0.00,FEW,,0.00,0.0,WeatherDisplay:10.37,2013-01-07 23:31:00,
2013-01-07 18:36:00,41.9,32.5,30.41,SE,125,0.0,0.0,69,0.00,FEW,,0.00,0.0,WeatherDisplay:10.37,2013-01-07 23:36:00,
2013-01-07 18:41:00,41.6,32.5,30.41,SE,125,0.0,0.0,70,0.00,FEW,,0.00,0.0,WeatherDisplay:10.37,2013-01-07 23:41:00,
2013-01-07 18:46:00,41.3,32.2,30.41,SE,125,0.0,0.0,70,0.00,FEW,,0.00,0.0,WeatherDisplay:10.37,2013-01-07 23:46:00,
2013-01-07 18:51:00,40.9,32.2,30.41,SE,125,0.0,0.0,71,0.00,FEW,,0.00,0.0,WeatherDisplay:10.37,2013-01-07 23:51:00,
2013-01-07 18:56:00,40.6,31.9,30.41,SE,125,0.0,0.0,71,0.00,FEW,,0.00,0.0,WeatherDisplay:10.37,2013-01-07 23:56:00,
2013-01-07 19:01:00,40.4,32.0,30.41,SE,125,0.0,0.0,72,0.00,FEW,,0.00,0.0,WeatherDisplay:10.37,2013-01-08 00:01:00,
2013-01-07 19:11:00,39.9,31.6,30.42,SE,125,0.0,0.0,72,0.00,FEW,,0.00,0.0,WeatherDisplay:10.37,2013-01-08 00:11:00,
2013-01-07 19:16:00,39.8,31.8,30.42,SE,125,0.0,0.0,73,0.00,FEW,,0.00,0.0,WeatherDisplay:10.37,2013-01-08 00:16:00,
2013-01-07 19:21:00,39.5,31.6,30.42,SE,125,0.0,0.0,73,0.00,FEW,,0.00,0.0,WeatherDisplay:10.37,2013-01-08 00:21:00,
2013-01-07 19:26:00,39.2,31.3,30.42,SE,125,0.0,0.0,73,0.00,FEW,,0.00,0.0,WeatherDisplay:10.37,2013-01-08 00:26:00,
2013-01-07 19:31:00,39.0,31.1,30.42,SE,125,0.0,0.0,73,0.00,FEW,,0.00,0.0,WeatherDisplay:10.37,2013-01-08 00:31:00,
2013-01-07 19:36:00,38.8,31.2,30.42,SE,125,0.0,0.0,74,0.00,FEW,,0.00,0.0,WeatherDisplay:10.37,2013-01-08 00:36:00,
2013-01-07 19:41:00,38.5,30.9,30.42,SE,125,0.0,0.0,74,0.00,FEW,,0.00,0.0,WeatherDisplay:10.37,2013-01-08 00:41:00,
2013-01-07 19:46:00,38.3,30.7,30.42,SE,125,0.0,0.0,74,0.00,FEW,,0.00,0.0,WeatherDisplay:10.37,2013-01-08 00:46:00,
2013-01-07 19:51:00,38.0,30.4,30.42,SE,125,0.0,0.0,74,0.00,FEW,,0.00,0.0,WeatherDisplay:10.37,2013-01-08 00:51:00,
2013-01-07 19:56:00,37.8,30.3,30.42,SE,125,0.0,0.0,74,0.00,FEW,,0.00,0.0,WeatherDisplay:10.37,2013-01-08 00:56:00,
2013-01-07 20:01:00,37.6,30.4,30.42,SE,125,0.0,0.0,75,0.00,CLR,,0.00,0.0,WeatherDisplay:10.37,2013-01-08 01:01:00,
2013-01-07 20:06:00,37.5,31.0,30.42,SE,125,0.0,0.0,77,0.00,CLR,,0.00,0.0,WeatherDisplay:10.37,2013-01-08 01:06:00,
2013-01-07 20:11:00,37.3,31.1,30.42,SE,125,0.0,0.0,78,0.00,CLR,,0.00,0.0,WeatherDisplay:10.37,2013-01-08 01:11:00,
2013-01-07 20:16:00,37.2,31.0,30.43,SE,125,0.0,0.0,78,0.00,CLR,,0.00,0.0,WeatherDisplay:10.37,2013-01-08 01:16:00,
2013-01-07 20:21:00,37.0,30.8,30.43,SE,125,0.0,0.0,78,0.00,CLR,,0.00,0.0,WeatherDisplay:10.37,2013-01-08 01:21:00,
2013-01-07 20:26:00,36.9,30.7,30.43,SE,125,0.0,0.0,78,0.00,CLR,,0.00,0.0,WeatherDisplay:10.37,2013-01-08 01:26:00,
2013-01-07 20:31:00,36.8,30.9,30.43,SE,125,0.0,0.0,79,0.00,CLR,,0.00,0.0,WeatherDisplay:10.37,2013-01-08 01:31:00,
2013-01-07 20:41:00,36.3,30.4,30.43,SE,125,0.0,0.0,79,0.00,CLR,,0.00,0.0,WeatherDisplay:10.37,2013-01-08 01:41:00,
2013-01-07 20:46:00,36.2,30.6,30.43,SE,125,0.0,0.0,80,0.00,CLR,,0.00,0.0,WeatherDisplay:10.37,2013-01-08 01:46:00,
2013-01-07 20:51:00,36.0,30.7,30.43,SE,125,0.0,0.0,81,0.00,CLR,,0.00,0.0,WeatherDisplay:10.37,2013-01-08 01:51:00,
2013-01-07 20:56:00,35.9,30.6,30.43,SE,125,0.0,0.0,81,0.00,CLR,,0.00,0.0,WeatherDisplay:10.37,2013-01-08 01:56:00,
2013-01-07 21:01:00,35.8,30.2,30.43,SE,125,0.0,0.0,80,0.00,CLR,,0.00,0.0,WeatherDisplay:10.37,2013-01-08 02:01:00,
2013-01-07 21:11:00,35.3,29.8,30.42,SE,125,0.0,0.0,80,0.00,CLR,,0.00,0.0,WeatherDisplay:10.37,2013-01-08 02:11:00,
2013-01-07 21:16:00,35.3,30.1,30.42,SE,125,0.0,0.0,81,0.00,CLR,,0.00,0.0,WeatherDisplay:10.37,2013-01-08 02:16:00,
2013-01-07 21:21:00,35.2,30.0,30.42,SE,125,0.0,0.0,81,0.00,CLR,,0.00,0.0,WeatherDisplay:10.37,2013-01-08 02:21:00,
2013-01-07 21:26:00,35.0,29.8,30.42,SE,125,0.0,0.0,81,0.00,CLR,,0.00,0.0,WeatherDisplay:10.37,2013-01-08 02:26:00,
2013-01-07 21:31:00,34.9,29.7,30.42,SE,125,0.0,0.0,81,0.00,CLR,,0.00,0.0,WeatherDisplay:10.37,2013-01-08 02:31:00,
2013-01-07 21:36:00,34.7,29.5,30.42,SE,125,0.0,0.0,81,0.00,CLR,,0.00,0.0,WeatherDisplay:10.37,2013-01-08 02:36:00,
2013-01-07 21:41:00,34.6,29.4,30.42,SE,125,0.0,0.0,81,0.00,CLR,,0.00,0.0,WeatherDisplay:10.37,2013-01-08 02:41:00,
2013-01-07 21:46:00,34.4,29.2,30.42,SE,125,0.0,0.0,81,0.00,CLR,,0.00,0.0,WeatherDisplay:10.37,2013-01-08 02:46:00,
2013-01-07 21:51:00,34.3,29.1,30.43,SE,125,0.0,0.0,81,0.00,CLR,,0.00,0.0,WeatherDisplay:10.37,2013-01-08 02:51:00,
2013-01-07 21:56:00,34.3,29.4,30.43,SE,125,0.0,0.0,82,0.00,CLR,,0.00,0.0,WeatherDisplay:10.37,2013-01-08 02:56:00,
2013-01-07 22:01:00,34.1,29.5,30.43,SE,125,0.0,0.0,83,0.00,CLR,,0.00,0.0,WeatherDisplay:10.37,2013-01-08 03:01:00,
2013-01-07 22:06:00,34.1,29.8,30.43,SE,125,0.0,0.0,84,0.00,CLR,,0.00,0.0,WeatherDisplay:10.37,2013-01-08 03:06:00,
2013-01-07 22:11:00,34.0,29.7,30.43,SE,125,0.0,0.0,84,0.00,CLR,,0.00,0.0,WeatherDisplay:10.37,2013-01-08 03:11:00,
2013-01-07 22:16:00,34.0,29.7,30.43,SE,125,0.0,0.0,84,0.00,CLR,,0.00,0.0,WeatherDisplay:10.37,2013-01-08 03:16:00,
2013-01-07 22:21:00,33.8,29.5,30.43,SE,125,0.0,0.0,84,0.00,CLR,,0.00,0.0,WeatherDisplay:10.37,2013-01-08 03:21:00,
2013-01-07 22:26:00,33.8,29.5,30.43,SE,125,0.0,0.0,84,0.00,CLR,,0.00,0.0,WeatherDisplay:10.37,2013-01-08 03:26:00,
2013-01-07 22:31:00,33.7,29.7,30.42,SE,125,0.0,0.0,85,0.00,CLR,,0.00,0.0,WeatherDisplay:10.37,2013-01-08 03:31:00,
2013-01-07 22:36:00,33.7,29.7,30.42,SE,125,0.0,0.0,85,0.00,CLR,,0.00,0.0,WeatherDisplay:10.37,2013-01-08 03:36:00,
2013-01-07 22:41:00,33.5,29.5,30.42,SE,125,0.0,0.0,85,0.00,CLR,,0.00,0.0,WeatherDisplay:10.37,2013-01-08 03:41:00,
2013-01-07 22:46:00,33.5,29.5,30.41,SE,125,0.0,0.0,85,0.00,CLR,,0.00,0.0,WeatherDisplay:10.37,2013-01-08 03:46:00,
2013-01-07 22:51:00,33.4,29.4,30.41,SE,125,0.0,0.0,85,0.00,CLR,,0.00,0.0,WeatherDisplay:10.37,2013-01-08 03:51:00,
2013-01-07 22:56:00,33.2,29.2,30.41,SE,125,0.0,0.0,85,0.00,CLR,,0.00,0.0,WeatherDisplay:10.37,2013-01-08 03:56:00,
2013-01-07 23:01:00,33.2,29.2,30.41,SE,125,0.0,0.0,85,0.00,FEW,,0.00,0.0,WeatherDisplay:10.37,2013-01-08 04:01:00,
2013-01-07 23:06:00,33.2,29.2,30.41,SE,125,0.0,0.0,85,0.00,FEW,,0.00,0.0,WeatherDisplay:10.37,2013-01-08 04:06:00,
2013-01-07 23:11:00,33.1,29.4,30.41,SE,125,0.0,0.0,86,0.00,FEW,,0.00,0.0,WeatherDisplay:10.37,2013-01-08 04:11:00,
2013-01-07 23:16:00,33.1,29.4,30.41,SE,125,0.0,0.0,86,0.00,FEW,,0.00,0.0,WeatherDisplay:10.37,2013-01-08 04:16:00,
2013-01-07 23:21:00,33.1,29.4,30.41,SE,125,0.0,0.0,86,0.00,FEW,,0.00,0.0,WeatherDisplay:10.37,2013-01-08 04:21:00,
2013-01-07 23:26:00,32.9,29.2,30.41,SE,125,0.0,0.0,86,0.00,FEW,,0.00,0.0,WeatherDisplay:10.37,2013-01-08 04:26:00,
2013-01-07 23:31:00,32.9,29.2,30.41,SE,125,0.0,0.0,86,0.00,FEW,,0.00,0.0,WeatherDisplay:10.37,2013-01-08 04:31:00,
2013-01-07 23:36:00,32.9,29.1,30.41,SE,125,0.0,0.0,86,0.00,FEW,,0.00,0.0,WeatherDisplay:10.37,2013-01-08 04:36:00,
2013-01-07 23:41:00,32.8,29.1,30.41,SE,125,0.0,0.0,86,0.00,FEW,,0.00,0.0,WeatherDisplay:10.37,2013-01-08 04:41:00,
2013-01-07 23:46:00,32.8,29.1,30.41,SE,125,0.0,0.0,86,0.00,FEW,,0.00,0.0,WeatherDisplay:10.37,2013-01-08 04:46:00,
2013-01-07 23:51:00,32.8,29.4,30.41,SE,125,0.0,0.0,87,0.00,FEW,,0.00,0.0,WeatherDisplay:10.37,2013-01-08 04:51:00,
2013-01-07 23:56:00,32.7,29.3,30.41,SE,125,0.0,0.0,87,0.00,FEW,,0.00,0.0,WeatherDisplay:10.37,2013-01-08 04:56:00,